Flight Track Log - Related Links

Times and Time Zones

All times are in EDT time to prevent confusion due to time zone crossing. See the N612TX flight status page for this flight to view local times or setup timezone preferences in your user account.

Time Position Orientation Groundspeed Altitude Reporting Facility
EDT Latitude Longitude Course Direction KTS MPH feet Rate Location/Type
Mon 10:28:35 AM 36.8683 -87.4369 North 166 191 3,500  Level Memphis Center
Mon 10:29:44 AM 36.9181 -87.4272 North 169 194 5,800 1,814 Climbing Memphis Center
Mon 10:30:44 AM 36.9578 -87.4336 353° North 170 196 7,400 1,800 Climbing Memphis Center
Mon 10:31:44 AM 37.0036 -87.4344 359° North 170 196 9,400 1,788 Climbing Memphis Center
Mon 10:34:02 AM 37.1122 -87.4339 360° North 166 191 13,300 1,530 Climbing Indianapolis Center
Mon 10:35:04 AM 37.1692 -87.4336 360° North 198 228 14,500 1,210 Climbing Indianapolis Center
Mon 10:36:06 AM 37.2283 -87.4328 North 207 238 15,800 1,210 Climbing Indianapolis Center
Mon 10:37:08 AM 37.2844 -87.4319 North 202 232 17,000 1,065 Climbing Indianapolis Center
Mon 10:38:10 AM 37.3417 -87.4319 360° North 203 234 18,000 484 Climbing Indianapolis Center
Mon 10:39:12 AM 37.4161 -87.4333 359° North 228 262 18,000  Level Indianapolis Center
Mon 10:40:14 AM 37.4867 -87.4331 360° North 249 287 18,000 195 Level Indianapolis Center
Mon 10:41:15 AM 37.5575 -87.4317 North 252 290 18,400 780 Climbing Indianapolis Center
Mon 10:42:17 AM 37.6208 -87.4331 359° North 228 262 19,600 871 Climbing Indianapolis Center
Mon 10:43:19 AM 37.6819 -87.4328 360° North 219 252 20,200 871 Climbing Indianapolis Center
Mon 10:44:21 AM 37.7422 -87.4314 North 215 247 21,400 871 Climbing Indianapolis Center
Mon 10:45:23 AM 37.7964 -87.4314 360° North 204 235 22,000 341 Climbing Indianapolis Center
Mon 10:46:24 AM 37.8647 -87.4317 360° North 241 277 22,100 390 Climbing Indianapolis Center
Mon 10:47:26 AM 37.9483 -87.4328 359° North 248 285 22,800 435 Climbing Indianapolis Center
Mon 10:48:28 AM 38.0175 -87.4325 360° North 248 285 23,000 97 Climbing Indianapolis Center
Mon 10:49:30 AM 38.0919 -87.4319 360° North 263 303 23,000  Level Indianapolis Center
Mon 10:50:32 AM 38.1661 -87.4322 360° North 265 305 23,000  Level Indianapolis Center
Mon 10:51:33 AM 38.2397 -87.4381 356° North 262 302 23,000  Level Indianapolis Center
Mon 10:52:35 AM 38.3111 -87.4453 355° North 256 295 23,000  Level Indianapolis Center
Mon 10:53:37 AM 38.3842 -87.4531 355° North 260 299 23,000  Level Indianapolis Center
Mon 10:54:39 AM 38.4589 -87.4517 North 265 305 23,000  Level Indianapolis Center
Mon 10:55:40 AM 38.5342 -87.4511 360° North 266 306 23,000  Level Indianapolis Center
Mon 10:56:42 AM 38.6097 -87.4517 360° North 269 310 23,000  Level Indianapolis Center
Mon 10:57:44 AM 38.6847 -87.4511 360° North 268 308 23,000  Level Indianapolis Center
Mon 10:58:45 AM 38.7761 -87.4508 360° North 271 312 23,000  Level Indianapolis Center
Mon 10:59:47 AM 38.8508 -87.4506 360° North 267 307 23,000  Level Indianapolis Center
Mon 11:00:49 AM 38.9264 -87.4497 360° North 270 311 23,000  Level Indianapolis Center
Mon 11:01:50 AM 39.0006 -87.4506 359° North 265 305 23,000  Level Indianapolis Center
Mon 11:02:52 AM 39.0761 -87.4494 North 269 310 23,000  Level Indianapolis Center
Mon 11:03:54 AM 39.1517 -87.4492 360° North 267 307 23,000  Level Indianapolis Center
Mon 11:04:55 AM 39.2272 -87.4489 360° North 270 311 23,000  Level Indianapolis Center
Mon 11:05:57 AM 39.3025 -87.4497 360° North 271 312 23,000  Level Indianapolis Center
Mon 11:06:58 AM 39.3775 -87.4489 360° North 271 312 23,000  Level Indianapolis Center
Mon 11:08:00 AM 39.4503 -87.4483 360° North 265 305 23,000  Level Indianapolis Center
Mon 11:09:02 AM 39.5358 -87.4478 360° North 259 298 23,000  Level Indianapolis Center
Mon 11:10:03 AM 39.6086 -87.4475 360° North 260 299 23,000  Level Indianapolis Center
Mon 11:11:05 AM 39.6811 -87.4469 360° North 261 300 23,000  Level Indianapolis Center
Mon 11:12:06 AM 39.7531 -87.4469 360° North 260 299 23,000  Level Indianapolis Center
Mon 11:13:08 AM 39.8253 -87.4464 360° North 258 297 23,000  Level Indianapolis Center
Mon 11:14:10 AM 39.8969 -87.4453 North 257 296 23,000  Level Indianapolis Center
Mon 11:15:11 AM 39.9689 -87.4456 360° North 258 297 23,000  Level Indianapolis Center
Mon 11:16:13 AM 40.0403 -87.4450 360° North 257 296 23,000  Level Indianapolis Center
Mon 11:17:15 AM 40.1247 -87.4450 360° North 255 293 23,000  Level Indianapolis Center
Mon 11:17:35 AM 40.1386 -87.4469 354° North 254 292 23,000  Level Chicago Center
Mon 11:18:37 AM 40.2097 -87.4456 North 255 293 23,000  Level Chicago Center
Mon 11:19:38 AM 40.2956 -87.4456 360° North 256 295 23,000  Level Chicago Center
Mon 11:20:40 AM 40.3653 -87.4453 360° North 253 291 23,000  Level Chicago Center
Mon 11:21:42 AM 40.4342 -87.4447 360° North 251 289 23,000  Level Chicago Center
Mon 11:22:44 AM 40.5042 -87.4439 North 250 288 23,000  Level Chicago Center
Mon 11:23:46 AM 40.5728 -87.4431 North 248 285 23,000  Level Chicago Center
Mon 11:24:47 AM 40.6556 -87.4428 360° North 249 287 23,000  Level Chicago Center
Mon 11:25:49 AM 40.7231 -87.4425 360° North 245 282 23,000  Level Chicago Center
Mon 11:26:51 AM 40.7914 -87.4425 360° North 246 283 23,000  Level Chicago Center
Mon 11:27:53 AM 40.8581 -87.4414 North 242 278 23,000  Level Chicago Center
Mon 11:28:55 AM 40.9244 -87.4411 360° North 241 277 23,000  Level Chicago Center
Mon 11:29:56 AM 40.9900 -87.4408 360° North 237 273 23,000  Level Chicago Center
Mon 11:30:58 AM 41.0697 -87.4408 360° North 240 276 23,000  Level Chicago Center
Mon 11:32:00 AM 41.1361 -87.4406 360° North 239 275 23,000  Level Chicago Center
Mon 11:33:02 AM 41.2022 -87.4406 360° North 240 276 23,000  Level Chicago Center
Mon 11:34:04 AM 41.2694 -87.4403 360° North 243 280 23,000  Level Chicago Center
Mon 11:35:05 AM 41.3361 -87.4397 360° North 241 277 23,000  Level Chicago Center
Mon 11:36:07 AM 41.4156 -87.4392 360° North 241 277 23,000  Level Chicago Center
Mon 11:37:09 AM 41.4825 -87.4394 360° North 242 278 23,000  Level Chicago Center
Mon 11:38:11 AM 41.5500 -87.4383 North 244 281 23,000  Level Chicago Center
Mon 11:39:13 AM 41.6175 -87.4392 359° North 245 282 23,000  Level Chicago Center
Mon 11:40:15 AM 41.6831 -87.4375 North 239 275 23,000  Level Chicago Center
Mon 11:41:16 AM 41.7644 -87.4372 360° North 244 281 23,000  Level Chicago Center
Mon 11:42:18 AM 41.8319 -87.4367 360° North 244 281 23,000  Level Chicago Center
Mon 11:43:20 AM 41.8992 -87.4372 360° North 244 281 23,000  Level Chicago Center
Mon 11:44:22 AM 41.9664 -87.4372 360° North 244 281 23,000  Level Chicago Center
Mon 11:45:24 AM 42.0342 -87.4369 360° North 245 282 23,000  Level Chicago Center
Mon 11:46:25 AM 42.1031 -87.4356 North 248 285 23,000  Level Chicago Center
Mon 11:47:27 AM 42.1847 -87.4356 360° North 247 284 23,000  Level Chicago Center
Mon 11:48:29 AM 42.2522 -87.4342 North 245 282 23,000  Level Chicago Center
Mon 11:49:31 AM 42.3189 -87.4344 360° North 242 278 23,000  Level Chicago Center
Mon 11:50:33 AM 42.3869 -87.4347 360° North 244 281 23,000  Level Chicago Center
Mon 11:51:35 AM 42.4544 -87.4353 360° North 244 281 23,000  Level Chicago Center
Mon 11:52:37 AM 42.5358 -87.4342 North 244 281 23,000  Level Chicago Center
Mon 11:53:39 AM 42.6014 -87.4331 North 245 282 23,000  Level Chicago Center
Mon 11:54:41 AM 42.6692 -87.4339 359° North 244 281 23,000  Level Chicago Center
Mon 11:55:43 AM 42.7386 -87.4328 North 247 284 23,000  Level Chicago Center
Mon 11:56:45 AM 42.8072 -87.4319 North 247 284 23,000  Level Chicago Center
Mon 11:57:46 AM 42.8867 -87.4306 North 246 283 23,000  Level Chicago Center
Mon 11:58:48 AM 42.9544 -87.4322 359° North 245 282 23,000  Level Chicago Center
Mon 12:00:52 PM 43.0869 -87.4300 North 238 274 23,000  Level Minneapolis Center
Mon 12:01:54 PM 43.1531 -87.4311 359° North 236 272 23,000  Level Minneapolis Center
Mon 12:02:56 PM 43.2308 -87.4300 North 240 276 23,000  Level Chicago Center
Mon 12:03:58 PM 43.2972 -87.4297 360° North 239 275 23,000  Level Chicago Center
Mon 12:05:00 PM 43.3636 -87.4294 360° North 240 276 23,000  Level Chicago Center
Mon 12:06:02 PM 43.4294 -87.4283 North 240 276 23,000  Level Chicago Center
Mon 12:07:04 PM 43.4950 -87.4286 360° North 237 273 23,000  Level Chicago Center
Mon 12:08:06 PM 43.5731 -87.4278 360° North 240 276 23,000  Level Chicago Center
Mon 12:09:08 PM 43.6397 -87.4275 360° North 240 276 23,000 -242 Level Chicago Center
Mon 12:10:10 PM 43.7058 -87.4261 North 238 274 22,500 -968 Descending Chicago Center
Mon 12:11:12 PM 43.7811 -87.4264 360° North 265 305 21,000 -1,403 Descending Chicago Center
Mon 12:12:14 PM 43.8561 -87.4272 360° North 269 310 19,600 -1,500 Descending Chicago Center
Mon 12:13:16 PM 43.9414 -87.4250 North 264 304 17,900 -1,488 Descending Minneapolis Center
Mon 12:14:19 PM 44.0133 -87.4236 North 260 299 16,500 -1,355 Descending Minneapolis Center
Mon 12:15:20 PM 44.0878 -87.4244 360° North 266 306 15,100 -1,220 Descending Minneapolis Center
Mon 12:16:22 PM 44.1622 -87.4222 North 266 306 14,000 -1,355 Descending Minneapolis Center
Mon 12:17:24 PM 44.2358 -87.4219 360° North 263 303 12,300 -1,645 Descending Minneapolis Center
Mon 12:18:26 PM 44.3253 -87.4242 359° North 272 313 10,600 -1,452 Descending Minneapolis Center
Mon 12:19:28 PM 44.3967 -87.4242 360° North 263 303 9,300 -1,258 Descending Minneapolis Center
Mon 12:21:32 PM 44.5306 -87.4247 360° North 239 275 6,700 -1,226 Descending Chicago Center
Mon 12:22:34 PM 44.5939 -87.4211 North 234 269 5,500 -1,104 Descending Chicago Center
Mon 12:23:37 PM 44.6517 -87.4150 North 230 265 4,400 -1,048 Descending Minneapolis Center

Login

Don't have an account? Register now (free) for customized features, flight alerts, and more!